Time;durP1;ratioP1;P1;durP2;ratioP2;P2;SDS_P1;SDS_P2;PMS_P1;PMS_P2;Temp;Humidity;BMP_temperature;BMP_pressure;BME280_temperature;BME280_humidity;BME280_pressure;Samples;Min_cycle;Max_cycle;Signal;HPM_P1;HPM_P2
2021/12/18 00:01:52;;;;;;;4.23;3.87;;;;;;;6.87;23.28;103769.44;4994996;28;20440;-46
2021/12/18 00:04:19;;;;;;;3.50;3.30;;;;;;;6.85;23.70;103769.53;4995080;28;20440;-47
2021/12/18 00:06:48;;;;;;;3.70;3.60;;;;;;;6.91;23.13;103770.94;4994720;28;20458;-47
2021/12/18 00:09:16;;;;;;;4.60;4.40;;;;;;;6.94;24.81;103771.59;4995116;28;20840;-45
2021/12/18 00:11:44;;;;;;;4.40;4.20;;;;;;;6.96;25.83;103768.84;4994715;28;20477;-43
2021/12/18 00:14:11;;;;;;;3.20;3.10;;;;;;;6.86;26.08;103770.38;4994516;28;20439;-45
2021/12/18 00:16:39;;;;;;;3.77;3.67;;;;;;;6.84;25.95;103764.34;4994364;28;20828;-45
2021/12/18 00:19:07;;;;;;;3.40;3.30;;;;;;;6.81;25.95;103767.19;4994632;28;20454;-46
2021/12/18 00:21:36;;;;;;;3.70;3.60;;;;;;;6.80;25.18;103768.97;4994806;28;20437;-45
2021/12/18 00:24:07;;;;;;;3.63;3.33;;;;;;;6.81;24.33;103762.72;4994573;28;20438;-47
2021/12/18 00:26:35;;;;;;;3.50;3.30;;;;;;;6.84;24.77;103761.69;4994200;28;20472;-44
2021/12/18 00:29:03;;;;;;;3.30;3.20;;;;;;;6.83;25.73;103759.97;4995298;28;20458;-41
2021/12/18 00:31:31;;;;;;;3.30;3.20;;;;;;;6.85;27.12;103756.25;4994963;28;20430;-46
2021/12/18 00:33:59;;;;;;;3.20;3.10;;;;;;;6.84;27.98;103757.22;4994271;28;20931;-44
2021/12/18 00:36:26;;;;;;;3.70;3.60;;;;;;;6.86;26.54;103749.16;4994017;28;20576;-45
2021/12/18 00:38:54;;;;;;;3.90;3.80;;;;;;;6.86;27.76;103747.38;4999040;28;20853;-42
2021/12/18 00:41:46;;;;;;;4.53;4.13;;;;;;;6.90;28.44;103746.19;5005686;28;20437;-45
2021/12/18 00:44:16;;;;;;;3.47;3.37;;;;;;;6.90;29.19;103753.34;5013488;28;20433;-45
2021/12/18 00:46:46;;;;;;;3.87;3.60;;;;;;;6.87;29.58;103751.69;5013432;28;20485;-43
2021/12/18 00:49:17;;;;;;;3.53;3.43;;;;;;;6.85;29.75;103753.63;5007791;28;20970;-42
2021/12/18 00:51:45;;;;;;;3.43;3.33;;;;;;;6.87;30.06;103751.69;5007314;28;20796;-42
2021/12/18 00:54:13;;;;;;;4.13;3.93;;;;;;;6.93;30.42;103755.78;5013415;28;20437;-42
2021/12/18 00:56:42;;;;;;;3.43;3.33;;;;;;;6.94;34.42;103750.38;5012970;28;20560;-44
2021/12/18 00:59:10;;;;;;;4.40;4.20;;;;;;;6.97;35.99;103744.88;5013713;28;20479;-44
2021/12/18 01:01:37;;;;;;;5.90;3.80;;;;;;;6.99;36.77;103745.59;5013526;28;20437;-46
2021/12/18 01:04:05;;;;;;;3.93;3.70;;;;;;;7.01;37.14;103745.50;5013536;28;20421;-47
2021/12/18 01:06:33;;;;;;;4.20;3.90;;;;;;;6.94;36.88;103749.50;5012872;28;21061;-44
2021/12/18 01:09:01;;;;;;;3.83;3.73;;;;;;;6.97;36.51;103744.88;5013057;28;20463;-42
2021/12/18 01:11:34;;;;;;;3.50;3.40;;;;;;;6.91;37.22;103752.34;5013420;28;20433;-44
2021/12/18 01:14:24;;;;;;;3.40;3.30;;;;;;;6.82;36.10;103750.31;5013155;28;20846;-42
2021/12/18 01:17:03;;;;;;;3.30;3.20;;;;;;;6.76;37.57;103748.91;5012737;28;20470;-43
2021/12/18 01:25:01;;;;;;;4.00;3.80;;;;;;;6.72;44.58;103759.81;5013355;28;20416;-47
2021/12/18 01:27:28;;;;;;;3.70;3.40;;;;;;;6.64;48.34;103758.50;5012422;28;20576;-45
2021/12/18 01:29:57;;;;;;;3.53;3.43;;;;;;;6.66;49.72;103753.09;5013017;28;20452;-42
2021/12/18 01:32:27;;;;;;;3.40;3.30;;;;;;;6.67;51.75;103750.34;5013165;28;20479;-41
2021/12/18 01:34:55;;;;;;;3.60;3.50;;;;;;;6.69;52.58;103748.44;5013056;28;20433;-45
2021/12/18 01:37:22;;;;;;;3.73;3.63;;;;;;;6.76;53.59;103751.56;5012197;28;20479;-41
2021/12/18 01:39:52;;;;;;;4.13;3.83;;;;;;;6.76;55.96;103754.22;5003200;28;20434;-45
2021/12/18 01:43:00;;;;;;;3.90;3.70;;;;;;;6.78;55.85;103752.28;5012645;28;20435;-42
2021/12/18 01:45:26;;;;;;;4.57;4.37;;;;;;;6.77;55.32;103747.97;5012664;28;20437;-42
2021/12/18 01:53:24;;;;;;;5.30;5.00;;;;;;;6.82;52.58;103745.84;5012453;28;20499;-44
2021/12/18 01:55:52;;;;;;;5.07;4.87;;;;;;;6.80;52.68;103757.53;5012258;28;20832;-42
2021/12/18 01:58:23;;;;;;;4.80;4.50;;;;;;;6.79;52.52;103750.50;5012644;28;20899;-42
2021/12/18 02:00:53;;;;;;;4.93;4.70;;;;;;;6.77;50.33;103763.03;5012627;28;20429;-42
2021/12/18 02:03:21;;;;;;;5.43;5.13;;;;;;;6.75;48.32;103754.31;5011772;28;20457;-44
2021/12/18 02:05:50;;;;;;;5.03;4.83;;;;;;;6.68;45.15;103753.84;5011848;28;20949;-44
2021/12/18 02:08:20;;;;;;;5.40;4.90;;;;;;;6.60;39.12;103745.56;5012678;28;21082;-44
2021/12/18 02:10:51;;;;;;;5.00;4.80;;;;;;;6.57;37.74;103754.53;5012480;28;20437;-46
2021/12/18 02:13:24;;;;;;;5.63;5.33;;;;;;;6.55;37.92;103742.31;5012191;28;20993;-43
2021/12/18 02:21:28;;;;;;;4.70;4.40;;;;;;;6.55;40.73;103748.47;5012545;28;20425;-46
2021/12/18 02:23:56;;;;;;;4.90;4.70;;;;;;;6.55;40.08;103747.63;5012535;28;20826;-42
2021/12/18 02:26:25;;;;;;;4.43;4.27;;;;;;;6.54;39.65;103757.38;5011927;28;20465;-42
2021/12/18 02:28:56;;;;;;;4.67;4.47;;;;;;;6.57;38.89;103748.41;5012151;28;20457;-43
2021/12/18 02:31:24;;;;;;;4.10;4.00;;;;;;;6.56;39.03;103744.03;5012556;28;20418;-46
2021/12/18 02:33:52;;;;;;;4.50;4.40;;;;;;;6.52;39.53;103739.84;5011736;28;20475;-45
2021/12/18 02:36:23;;;;;;;4.77;4.47;;;;;;;6.50;38.25;103737.31;5011845;28;20869;-47
2021/12/18 02:39:06;;;;;;;5.03;4.63;;;;;;;6.49;37.95;103743.56;5010311;28;20467;-42
2021/12/18 02:41:37;;;;;;;4.70;4.40;;;;;;;6.47;36.42;103732.22;4996420;28;20437;-44
2021/12/18 02:44:10;;;;;;;5.10;4.60;;;;;;;6.46;34.08;103737.59;5012174;28;20955;-44
2021/12/18 02:46:39;;;;;;;4.60;4.20;;;;;;;6.43;33.79;103728.03;5011580;28;20461;-46
2021/12/18 02:49:11;;;;;;;4.87;4.60;;;;;;;6.39;33.27;103731.81;5011746;28;20460;-45
2021/12/18 02:51:40;;;;;;;4.70;4.50;;;;;;;6.35;32.21;103716.22;5012201;28;20516;-44
2021/12/18 02:54:09;;;;;;;4.60;4.20;;;;;;;6.36;31.61;103717.94;5011706;28;20481;-45
2021/12/18 02:56:37;;;;;;;4.37;4.20;;;;;;;6.33;34.96;103720.78;5011462;28;20483;-46
2021/12/18 02:59:09;;;;;;;4.57;4.37;;;;;;;6.28;39.33;103722.84;5011823;28;21054;-46
2021/12/18 03:01:38;;;;;;;4.40;4.20;;;;;;;6.30;40.97;103720.97;5011976;28;20426;-48
2021/12/18 03:04:14;;;;;;;4.27;4.07;;;;;;;6.29;43.06;103711.31;5011858;28;20435;-46
2021/12/18 03:06:46;;;;;;;4.30;4.10;;;;;;;6.33;45.44;103716.31;5011651;28;20472;-41
2021/12/18 03:09:49;;;;;;;3.70;3.60;;;;;;;6.28;51.89;103709.59;5012139;28;20603;-44
2021/12/18 03:23:33;;;;;;;4.00;3.80;;;;;;;6.18;56.96;103705.84;5015545;28;20437;-43
2021/12/18 03:26:02;;;;;;;4.50;4.30;;;;;;;6.10;53.70;103699.22;5015115;28;20507;-45
2021/12/18 03:28:31;;;;;;;4.07;3.97;;;;;;;6.11;52.53;103700.06;5015061;28;20453;-43
2021/12/18 03:30:59;;;;;;;4.40;4.30;;;;;;;6.08;49.98;103698.47;5015145;28;20429;-44
2021/12/18 03:33:28;;;;;;;4.40;4.20;;;;;;;6.09;50.21;103696.69;5014911;28;21002;-42
2021/12/18 03:35:56;;;;;;;3.90;3.80;;;;;;;6.12;49.01;103702.59;5014731;28;20437;-42
2021/12/18 03:38:24;;;;;;;4.03;3.83;;;;;;;6.16;49.83;103699.75;5013356;28;20468;-42
2021/12/18 03:40:51;;;;;;;5.20;4.90;;;;;;;6.15;50.90;103700.72;5007047;28;20520;-45
2021/12/18 03:43:20;;;;;;;4.33;4.13;;;;;;;6.15;51.45;103698.09;5014850;28;20941;-44
2021/12/18 03:45:48;;;;;;;3.97;3.77;;;;;;;6.09;52.93;103696.69;5014718;28;20433;-43
2021/12/18 03:48:16;;;;;;;3.90;3.80;;;;;;;6.08;51.96;103694.97;5014899;28;20453;-44
2021/12/18 03:50:46;;;;;;;4.20;4.00;;;;;;;6.06;48.53;103694.22;5014893;28;20854;-44
2021/12/18 03:53:14;;;;;;;4.90;4.70;;;;;;;6.12;47.26;103686.72;5014429;28;20433;-42
2021/12/18 03:55:42;;;;;;;4.27;4.07;;;;;;;6.05;43.83;103695.16;5014599;28;20432;-42
2021/12/18 03:58:10;;;;;;;4.70;4.50;;;;;;;6.07;41.34;103695.91;5014241;28;20491;-43
2021/12/18 04:00:39;;;;;;;5.20;4.90;;;;;;;6.07;39.41;103686.16;5014736;28;20433;-41
2021/12/18 04:03:06;;;;;;;4.90;4.70;;;;;;;6.08;40.00;103689.66;5014350;28;20449;-41
2021/12/18 04:05:34;;;;;;;3.90;3.80;;;;;;;6.05;38.50;103696.00;5014384;28;20475;-43
2021/12/18 04:08:09;;;;;;;5.07;4.80;;;;;;;6.09;36.73;103686.06;5013920;28;20471;-41
2021/12/18 04:10:38;;;;;;;5.43;5.13;;;;;;;6.10;37.54;103691.25;5014365;28;20432;-44
2021/12/18 04:13:08;;;;;;;5.07;4.87;;;;;;;6.11;35.52;103689.47;5014379;28;20437;-46
2021/12/18 04:15:36;;;;;;;4.60;4.30;;;;;;;6.13;35.16;103691.06;5014173;28;20962;-43
2021/12/18 04:18:05;;;;;;;5.40;5.00;;;;;;;6.17;35.28;103685.59;5013860;28;20465;-41
2021/12/18 04:20:33;;;;;;;5.87;5.37;;;;;;;6.19;35.16;103684.53;5014497;28;20543;-45
2021/12/18 04:23:00;;;;;;;5.70;5.40;;;;;;;6.22;35.52;103678.19;5014274;28;20464;-42
2021/12/18 04:25:28;;;;;;;5.60;5.23;;;;;;;6.26;36.06;103688.50;5013880;28;20429;-44
2021/12/18 04:27:56;;;;;;;5.10;4.80;;;;;;;6.17;36.13;103677.63;5013575;28;20475;-42
2021/12/18 04:30:24;;;;;;;5.30;5.00;;;;;;;6.15;33.41;103676.88;5013989;28;20935;-42
2021/12/18 04:32:55;;;;;;;5.13;4.87;;;;;;;6.14;31.94;103678.69;5013901;28;20495;-42
2021/12/18 04:35:25;;;;;;;5.70;5.30;;;;;;;6.19;31.39;103650.09;5013864;28;20548;-46
2021/12/18 04:37:52;;;;;;;5.17;4.90;;;;;;;6.18;31.40;103652.84;5013271;28;20465;-43
2021/12/18 04:40:25;;;;;;;5.17;4.97;;;;;;;6.19;29.97;103658.03;5004298;28;20445;-45
2021/12/18 04:42:53;;;;;;;5.10;4.90;;;;;;;6.14;30.94;103657.47;5013754;28;20524;-42
2021/12/18 04:45:21;;;;;;;5.43;5.17;;;;;;;6.09;30.15;103660.41;5014102;28;20433;-46
2021/12/18 04:47:48;;;;;;;4.97;4.67;;;;;;;6.13;30.46;103650.47;5013329;28;20479;-45
2021/12/18 04:50:17;;;;;;;5.40;5.10;;;;;;;6.16;31.44;103655.56;5013592;28;20430;-42
2021/12/18 04:52:46;;;;;;;5.10;4.80;;;;;;;6.18;31.52;103651.06;5013539;28;20425;-43
2021/12/18 04:55:14;;;;;;;5.17;4.90;;;;;;;6.22;29.97;103649.88;5013459;28;20473;-44
2021/12/18 04:57:41;;;;;;;5.90;5.50;;;;;;;6.21;28.34;103652.66;5012650;28;20548;-47
2021/12/18 05:00:12;;;;;;;5.73;5.43;;;;;;;6.29;29.28;103645.91;5013460;28;20437;-44
2021/12/18 05:02:43;;;;;;;5.43;5.23;;;;;;;6.36;30.38;103652.50;5013528;28;20902;-44
2021/12/18 05:05:12;;;;;;;5.03;4.80;;;;;;;6.37;33.91;103648.06;5013441;28;20461;-43
2021/12/18 05:07:40;;;;;;;5.27;4.87;;;;;;;6.24;33.68;103642.72;5012484;28;20479;-44
2021/12/18 05:10:11;;;;;;;5.63;5.33;;;;;;;6.21;30.70;103648.22;5013594;28;20439;-46
2021/12/18 05:12:39;;;;;;;5.17;4.87;;;;;;;6.19;27.83;103657.19;5013171;28;20935;-42
2021/12/18 05:15:08;;;;;;;4.73;4.53;;;;;;;6.17;27.35;103653.78;5013399;28;20878;-42
2021/12/18 05:17:36;;;;;;;5.83;5.33;;;;;;;6.13;28.33;103645.19;5012235;28;20978;-43
2021/12/18 05:20:05;;;;;;;5.80;5.50;;;;;;;6.11;25.89;103647.94;5013241;28;20819;-41
2021/12/18 05:22:33;;;;;;;5.00;4.80;;;;;;;6.16;26.38;103650.28;5013213;28;20441;-48
2021/12/18 05:25:00;;;;;;;5.77;5.37;;;;;;;6.20;27.25;103645.66;5013007;28;20436;-46
2021/12/18 05:27:29;;;;;;;5.20;4.90;;;;;;;6.13;28.01;103656.63;5012040;28;20462;-44
2021/12/18 05:29:57;;;;;;;4.87;4.67;;;;;;;6.15;25.14;103655.69;5013124;28;20433;-42
2021/12/18 05:32:25;;;;;;;5.50;5.20;;;;;;;6.13;25.23;103667.22;5011958;28;20449;-47
2021/12/18 05:34:52;;;;;;;4.50;4.30;;;;;;;6.07;25.76;103661.47;5012911;28;20472;-45
2021/12/18 05:37:31;;;;;;;4.83;4.53;;;;;;;5.99;24.96;103651.34;5006964;28;20482;-44
2021/12/18 05:39:59;;;;;;;4.50;4.30;;;;;;;5.98;23.78;103644.34;4999115;28;20541;-47
2021/12/18 05:42:27;;;;;;;5.30;5.00;;;;;;;5.99;22.68;103651.34;5010633;28;20434;-46
2021/12/18 05:44:56;;;;;;;5.13;4.90;;;;;;;6.00;22.62;103647.75;5012185;28;20433;-48
2021/12/18 05:47:23;;;;;;;4.90;4.70;;;;;;;6.00;21.40;103650.38;5010866;28;20548;-40
2021/12/18 05:49:51;;;;;;;4.60;4.40;;;;;;;6.01;21.20;103652.09;5011463;28;20986;-41
2021/12/18 05:52:19;;;;;;;4.10;3.90;;;;;;;5.99;20.33;103650.50;5011160;28;20437;-43
2021/12/18 05:54:46;;;;;;;4.47;4.27;;;;;;;6.01;19.70;103654.75;5011559;28;20461;-44
2021/12/18 05:57:14;;;;;;;4.70;4.50;;;;;;;6.04;19.93;103654.56;5010812;28;20465;-41
2021/12/18 05:59:42;;;;;;;4.80;4.60;;;;;;;6.00;19.88;103645.09;5010992;28;20437;-43
2021/12/18 06:02:11;;;;;;;4.50;4.20;;;;;;;6.03;18.94;103652.84;5010772;28;20433;-44
2021/12/18 06:04:39;;;;;;;5.03;4.83;;;;;;;6.03;18.02;103649.38;5011522;28;20425;-44
2021/12/18 06:07:08;;;;;;;4.30;4.10;;;;;;;5.99;16.44;103640.75;5010206;28;20469;-44
2021/12/18 06:09:37;;;;;;;4.83;4.63;;;;;;;6.05;17.31;103643.03;5011168;28;20435;-45
2021/12/18 06:12:06;;;;;;;4.73;4.47;;;;;;;6.05;18.10;103650.13;5010964;28;20785;-43
2021/12/18 06:14:33;;;;;;;4.40;4.30;;;;;;;6.05;18.45;103632.44;5011233;28;20457;-44
2021/12/18 06:17:01;;;;;;;4.13;4.03;;;;;;;6.06;17.98;103631.47;5009915;28;20461;-45
2021/12/18 06:19:30;;;;;;;4.10;3.90;;;;;;;6.09;18.10;103633.91;5010807;28;20464;-41
2021/12/18 06:21:57;;;;;;;4.10;3.90;;;;;;;6.06;17.89;103635.94;5010473;28;20966;-43
2021/12/18 06:24:26;;;;;;;4.57;4.37;;;;;;;6.08;17.23;103629.59;5011323;28;20433;-46
2021/12/18 06:26:54;;;;;;;4.50;4.30;;;;;;;6.10;16.69;103634.78;5010638;28;20838;-45
2021/12/18 06:29:21;;;;;;;3.80;3.70;;;;;;;6.15;17.01;103634.50;5010198;28;20460;-41
2021/12/18 06:31:49;;;;;;;4.47;4.17;;;;;;;6.08;20.00;103634.88;5010097;28;20448;-42
2021/12/18 06:34:17;;;;;;;3.93;3.83;;;;;;;6.03;20.32;103626.34;5011212;28;20437;-45
2021/12/18 06:36:47;;;;;;;4.40;4.30;;;;;;;6.04;22.86;103638.66;5009395;28;20483;-45
2021/12/18 06:39:15;;;;;;;4.77;4.57;;;;;;;6.08;23.61;103640.19;4999625;28;20927;-42
2021/12/18 06:41:42;;;;;;;4.30;4.20;;;;;;;6.08;25.44;103637.53;5003918;28;20437;-43
2021/12/18 06:44:11;;;;;;;4.67;4.27;;;;;;;6.10;25.04;103630.31;5010999;28;20435;-43
2021/12/18 06:46:39;;;;;;;4.93;4.83;;;;;;;6.09;24.46;103639.22;5010354;28;20472;-42
2021/12/18 06:49:09;;;;;;;4.60;4.50;;;;;;;6.13;24.80;103630.13;5012861;28;20459;-45
2021/12/18 06:51:37;;;;;;;4.67;4.47;;;;;;;6.11;24.24;103629.38;5014095;28;20437;-45
2021/12/18 06:54:06;;;;;;;4.60;4.50;;;;;;;6.13;23.00;103629.28;5014814;28;20443;-46
2021/12/18 06:56:34;;;;;;;4.77;4.67;;;;;;;6.13;22.38;103613.38;5014070;28;20993;-44
2021/12/18 06:59:01;;;;;;;4.80;4.70;;;;;;;6.12;21.25;103627.59;5014343;28;20824;-41
2021/12/18 07:01:29;;;;;;;4.97;4.87;;;;;;;6.12;20.79;103619.66;5014274;28;20437;-44
2021/12/18 07:03:57;;;;;;;4.60;4.40;;;;;;;6.17;19.95;103616.69;5014980;28;20429;-44
2021/12/18 07:06:25;;;;;;;4.40;4.30;;;;;;;6.22;21.19;103618.09;5014095;28;20551;-43
2021/12/18 07:08:53;;;;;;;4.77;4.57;;;;;;;6.24;21.74;103621.50;5014809;28;20456;-43
2021/12/18 07:11:24;;;;;;;4.00;3.90;;;;;;;6.16;21.78;103623.78;5013756;28;20520;-44
2021/12/18 07:13:51;;;;;;;5.07;4.77;;;;;;;6.17;20.99;103616.69;5014800;28;20790;-42
2021/12/18 07:16:20;;;;;;;4.50;4.30;;;;;;;6.16;19.17;103621.13;5013808;28;20508;-43
2021/12/18 07:18:49;;;;;;;5.10;4.90;;;;;;;6.16;16.73;103620.28;5014333;28;20461;-45
2021/12/18 07:21:22;;;;;;;4.03;3.93;;;;;;;6.19;17.08;103617.44;5013614;28;21257;-44
2021/12/18 07:23:49;;;;;;;4.03;3.93;;;;;;;6.18;16.62;103610.44;5014397;28;20437;-47
2021/12/18 07:26:17;;;;;;;4.80;4.60;;;;;;;6.18;15.60;103613.09;5013832;28;20478;-47
2021/12/18 07:28:46;;;;;;;4.23;3.93;;;;;;;6.19;14.91;103614.78;5013914;28;20456;-42
2021/12/18 07:31:14;;;;;;;4.23;4.03;;;;;;;6.21;14.63;103612.91;5013529;28;20437;-44
2021/12/18 07:33:43;;;;;;;4.10;3.90;;;;;;;6.24;14.69;103618.88;5014032;28;20469;-44
2021/12/18 07:36:11;;;;;;;4.23;4.10;;;;;;;6.25;15.89;103606.44;5013193;28;20471;-46
2021/12/18 07:38:38;;;;;;;4.30;4.20;;;;;;;6.24;14.15;103613.56;5013350;28;20469;-44
2021/12/18 07:41:06;;;;;;;4.80;3.70;;;;;;;6.22;13.09;103611.94;5013310;28;20941;-44
2021/12/18 07:43:39;;;;;;;4.20;4.00;;;;;;;6.27;11.47;103621.31;5013511;28;20429;-44
2021/12/18 07:46:08;;;;;;;4.53;4.33;;;;;;;6.29;12.53;103615.91;5013464;28;20440;-45
2021/12/18 07:48:36;;;;;;;5.53;5.10;;;;;;;6.29;12.10;103623.84;5013731;28;20998;-43
2021/12/18 07:51:03;;;;;;;5.40;5.10;;;;;;;6.33;11.98;103620.88;5013054;28;20444;-42
2021/12/18 07:53:31;;;;;;;6.10;5.60;;;;;;;6.30;11.38;103615.78;5013872;28;20441;-45
2021/12/18 07:56:01;;;;;;;6.00;5.50;;;;;;;6.36;10.58;103611.91;5013410;28;20472;-45
2021/12/18 07:58:29;;;;;;;5.87;5.53;;;;;;;6.36;9.81;103607.44;5014034;28;20449;-45
2021/12/18 08:00:56;;;;;;;9.47;6.10;;;;;;;6.37;8.94;103611.81;5012497;28;20437;-46
2021/12/18 08:03:25;;;;;;;8.10;7.40;;;;;;;6.38;8.82;103610.00;5013659;28;20821;-43
2021/12/18 08:05:53;;;;;;;10.00;6.50;;;;;;;6.40;10.38;103601.00;5012792;28;20729;-45
2021/12/18 08:08:21;;;;;;;10.77;7.97;;;;;;;6.41;9.71;103602.72;5013471;28;20461;-45
2021/12/18 08:10:48;;;;;;;9.07;6.57;;;;;;;6.43;10.50;103602.59;5013152;28;20534;-43
2021/12/18 08:13:16;;;;;;;6.90;6.37;;;;;;;6.44;9.82;103601.66;5013089;28;20444;-44
2021/12/18 08:15:44;;;;;;;14.50;8.23;;;;;;;6.48;9.87;103608.47;5013130;28;20450;-45
2021/12/18 08:18:11;;;;;;;10.60;7.20;;;;;;;6.52;10.28;103599.34;5012199;28;20831;-45
2021/12/18 08:20:41;;;;;;;9.63;7.37;;;;;;;6.55;10.86;103604.44;5012978;28;20445;-47
2021/12/18 08:23:08;;;;;;;9.57;8.10;;;;;;;6.58;11.72;103580.38;5012984;28;20448;-44
2021/12/18 08:25:36;;;;;;;13.60;8.70;;;;;;;6.59;12.26;103590.06;5013549;28;20443;-40
2021/12/18 08:28:05;;;;;;;9.07;7.13;;;;;;;6.61;13.83;103598.75;5012937;28;20469;-43
2021/12/18 08:30:37;;;;;;;11.87;8.30;;;;;;;6.66;16.75;103600.13;5013093;28;20455;-45
2021/12/18 08:33:06;;;;;;;14.37;7.43;;;;;;;6.72;18.26;103598.06;5012535;28;20521;-44
2021/12/18 08:35:35;;;;;;;15.57;9.63;;;;;;;6.75;20.96;103598.66;5012987;28;20517;-42
2021/12/18 08:38:06;;;;;;;10.03;6.77;;;;;;;6.82;22.16;103581.41;5012216;28;21021;-44
2021/12/18 08:40:34;;;;;;;12.20;7.33;;;;;;;6.88;24.80;103572.19;4993115;28;20437;-45
2021/12/18 08:43:02;;;;;;;12.57;8.47;;;;;;;6.92;27.08;103576.34;4992905;28;20438;-43
2021/12/18 08:45:30;;;;;;;16.97;7.63;;;;;;;6.98;29.09;103576.78;4993118;28;20935;-45
2021/12/18 08:47:58;;;;;;;10.83;7.07;;;;;;;7.05;31.96;103575.38;4992493;28;20482;-42
2021/12/18 08:50:26;;;;;;;12.43;7.80;;;;;;;7.11;36.17;103572.31;4993169;28;20441;-42
2021/12/18 08:52:53;;;;;;;9.53;8.13;;;;;;;7.18;40.14;103578.06;4992696;28;20444;-44
2021/12/18 08:55:23;;;;;;;9.53;7.47;;;;;;;7.24;42.38;103570.53;4993030;28;20444;-43
2021/12/18 08:57:52;;;;;;;9.40;6.33;;;;;;;7.31;43.82;103560.34;4992258;28;21042;-42
2021/12/18 09:00:23;;;;;;;13.00;7.77;;;;;;;7.35;47.33;103572.41;4992510;28;20426;-44
2021/12/18 09:02:54;;;;;;;12.40;6.20;;;;;;;7.38;50.30;103568.72;4992185;28;21239;-43
2021/12/18 09:05:23;;;;;;;10.70;6.80;;;;;;;7.40;49.61;103572.97;4992819;28;20438;-43
2021/12/18 09:07:51;;;;;;;10.03;7.13;;;;;;;7.47;49.74;103576.00;4992227;28;20881;-41
2021/12/18 09:10:20;;;;;;;9.07;6.90;;;;;;;7.53;52.41;103572.94;4992204;28;20434;-44
2021/12/18 09:12:50;;;;;;;14.43;6.80;;;;;;;7.57;53.20;103569.09;4992259;28;20557;-43
2021/12/18 09:15:17;;;;;;;17.07;7.47;;;;;;;7.60;54.78;103574.19;4992933;28;20442;-41
2021/12/18 09:17:45;;;;;;;16.13;7.93;;;;;;;7.63;58.30;103568.69;4991773;28;20564;-40
2021/12/18 09:20:14;;;;;;;11.80;7.37;;;;;;;7.65;59.09;103556.13;4992150;28;20453;-44
2021/12/18 09:22:41;;;;;;;15.47;6.70;;;;;;;7.68;59.27;103561.22;4991426;28;20430;-41
2021/12/18 09:25:10;;;;;;;13.30;7.80;;;;;;;7.72;62.30;103560.06;4992697;28;20438;-42
2021/12/18 09:27:39;;;;;;;13.17;7.70;;;;;;;7.77;63.59;103549.94;4991901;28;20469;-41
2021/12/18 09:30:11;;;;;;;9.70;7.90;;;;;;;7.78;64.89;103556.97;4991981;28;20528;-44
2021/12/18 09:32:40;;;;;;;8.57;7.03;;;;;;;7.83;66.11;103562.78;4991907;28;20456;-44
2021/12/18 09:35:09;;;;;;;12.00;7.47;;;;;;;7.85;67.10;103546.75;4992308;28;20956;-42
2021/12/18 09:37:38;;;;;;;11.77;8.60;;;;;;;7.87;68.47;103555.44;4991657;28;20484;-45
2021/12/18 09:40:07;;;;;;;10.90;7.10;;;;;;;7.85;67.55;103547.59;4990355;28;20445;-45
2021/12/18 09:42:36;;;;;;;11.40;7.30;;;;;;;7.88;70.09;103539.41;4991997;28;20806;-45
2021/12/18 09:45:06;;;;;;;12.80;6.70;;;;;;;7.88;70.50;103542.06;4992297;28;20439;-43
2021/12/18 09:47:35;;;;;;;8.60;7.70;;;;;;;7.88;70.92;103535.91;4995036;28;20983;-44
2021/12/18 09:50:04;;;;;;;10.53;7.03;;;;;;;7.87;71.29;103535.03;4998956;28;21237;-43
2021/12/18 09:52:34;;;;;;;15.30;7.80;;;;;;;7.86;71.54;103533.34;5011535;28;20860;-45
2021/12/18 09:55:02;;;;;;;13.13;7.63;;;;;;;7.87;71.79;103524.41;5011409;28;20433;-44
2021/12/18 09:57:29;;;;;;;18.70;7.90;;;;;;;7.91;70.68;103523.25;5011045;28;20477;-45
2021/12/18 09:59:57;;;;;;;16.27;7.50;;;;;;;7.91;72.40;103525.03;5011113;28;20434;-44
2021/12/18 10:02:25;;;;;;;16.50;7.80;;;;;;;7.91;72.63;103509.97;5010753;28;20437;-45
2021/12/18 10:04:54;;;;;;;17.70;8.03;;;;;;;7.92;72.77;103514.28;5011539;28;20437;-42
2021/12/18 10:07:24;;;;;;;11.07;6.47;;;;;;;7.97;74.43;103503.34;5010837;28;20469;-45
2021/12/18 10:09:56;;;;;;;17.63;7.87;;;;;;;7.92;74.23;103503.66;5010464;28;20441;-44
2021/12/18 10:12:26;;;;;;;16.93;8.97;;;;;;;7.93;74.41;103501.88;5010891;28;20433;-42
2021/12/18 10:14:57;;;;;;;14.30;7.03;;;;;;;7.87;74.64;103500.50;5011309;28;20417;-45
2021/12/18 10:17:28;;;;;;;16.37;8.20;;;;;;;7.87;73.85;103489.88;5010915;28;20479;-46
2021/12/18 10:20:17;;;;;;;11.00;7.70;;;;;;;7.92;72.09;103493.03;5011002;28;20429;-43
2021/12/18 10:22:47;;;;;;;16.00;7.73;;;;;;;7.92;74.20;103487.72;5009953;28;20481;-41
2021/12/18 10:25:17;;;;;;;23.00;10.43;;;;;;;7.96;73.83;103478.56;5011153;28;20812;-42
2021/12/18 10:27:55;;;;;;;15.20;9.07;;;;;;;7.99;73.66;103472.19;5010801;28;20464;-45
2021/12/18 10:30:22;;;;;;;19.77;8.60;;;;;;;8.00;75.62;103473.88;5000579;28;20430;-43
2021/12/18 10:32:59;;;;;;;11.67;7.20;;;;;;;8.04;76.86;103464.72;4991174;28;20549;-46
2021/12/18 10:35:41;;;;;;;15.00;7.67;;;;;;;8.07;77.05;103468.00;4991550;28;20462;-43
2021/12/18 10:38:10;;;;;;;14.30;7.90;;;;;;;8.10;78.47;103464.25;4990656;28;20478;-44
2021/12/18 10:40:46;;;;;;;18.00;6.93;;;;;;;8.11;77.92;103461.50;4998540;28;20429;-42
2021/12/18 10:43:16;;;;;;;10.40;6.93;;;;;;;8.15;79.95;103467.44;4990994;28;20438;-44
2021/12/18 10:45:44;;;;;;;16.30;9.00;;;;;;;8.16;79.99;103447.84;4991425;28;20438;-44
2021/12/18 10:48:14;;;;;;;17.23;8.23;;;;;;;8.16;81.15;103466.44;4990692;28;20476;-47
2021/12/18 10:50:46;;;;;;;15.53;8.40;;;;;;;8.21;79.52;103454.50;4990637;28;20430;-43
2021/12/18 10:53:16;;;;;;;10.60;7.70;;;;;;;8.18;80.93;103457.41;4990819;28;20477;-46
2021/12/18 10:55:48;;;;;;;15.77;7.87;;;;;;;8.24;79.68;103467.56;4991459;28;20434;-47
2021/12/18 10:58:19;;;;;;;18.97;7.17;;;;;;;8.27;80.89;103470.03;4971312;28;20471;-46
2021/12/18 11:00:57;;;;;;;18.40;7.83;;;;;;;8.29;80.55;103462.81;4971429;28;20433;-48
2021/12/18 11:03:29;;;;;;;17.07;8.67;;;;;;;8.33;80.36;103461.59;4971589;28;20493;-48
2021/12/18 11:06:15;;;;;;;11.63;6.73;;;;;;;8.39;81.99;103456.78;4971072;28;20793;-43
2021/12/18 11:09:06;;;;;;;9.97;6.83;;;;;;;8.40;81.94;103459.31;4970920;28;20458;-43
2021/12/18 11:14:25;;;;;;;15.33;7.83;;;;;;;8.47;82.64;103467.69;4971653;28;20685;-42
2021/12/18 11:16:56;;;;;;;16.37;7.13;;;;;;;8.50;82.35;103456.81;4971299;28;20479;-44
2021/12/18 11:19:25;;;;;;;18.07;8.47;;;;;;;8.54;82.77;103463.59;4971289;28;20566;-43
2021/12/18 11:21:57;;;;;;;16.63;7.80;;;;;;;8.57;82.71;103456.22;4970672;28;20439;-45
2021/12/18 11:24:31;;;;;;;15.50;7.70;;;;;;;8.54;83.59;103455.63;4971894;28;20419;-43
2021/12/18 11:27:01;;;;;;;18.67;7.57;;;;;;;8.60;83.94;103449.84;4971483;28;20553;-42
2021/12/18 11:29:40;;;;;;;19.53;7.70;;;;;;;8.57;84.98;103452.72;4971390;28;20431;-42
2021/12/18 11:32:10;;;;;;;16.73;7.23;;;;;;;8.62;84.98;103458.53;4970762;28;20519;-45
2021/12/18 11:34:39;;;;;;;20.33;7.33;;;;;;;8.70;85.08;103450.81;4971969;28;20430;-46
2021/12/18 11:37:11;;;;;;;14.97;7.97;;;;;;;8.73;86.32;103446.09;4973718;28;20466;-46
2021/12/18 11:39:40;;;;;;;16.00;7.33;;;;;;;8.75;87.59;103438.00;4974663;28;20467;-43
2021/12/18 11:42:08;;;;;;;10.97;6.83;;;;;;;8.71;86.79;103437.41;4972165;28;20435;-43
2021/12/18 11:44:38;;;;;;;17.50;7.60;;;;;;;8.74;87.61;103431.00;4979352;28;20431;-45
2021/12/18 11:47:28;;;;;;;15.17;6.70;;;;;;;8.77;87.08;103426.28;4982625;28;20472;-42
2021/12/18 11:49:58;;;;;;;15.33;7.50;;;;;;;8.79;87.38;103436.78;4975781;28;20442;-42
2021/12/18 11:52:28;;;;;;;15.07;8.07;;;;;;;8.80;87.33;103435.84;4989319;28;20468;-41
2021/12/18 11:54:57;;;;;;;14.73;7.30;;;;;;;8.84;88.37;103424.00;4975120;28;20425;-42
2021/12/18 11:57:48;;;;;;;15.77;7.10;;;;;;;8.89;88.60;103417.34;4974216;28;20466;-44
2021/12/18 12:00:44;;;;;;;14.63;7.57;;;;;;;8.93;88.73;103414.44;4978726;28;20438;-44
2021/12/18 12:03:25;;;;;;;19.27;8.00;;;;;;;9.01;89.97;103423.50;4971292;28;20466;-42
2021/12/18 12:05:54;;;;;;;19.73;8.07;;;;;;;8.99;90.33;103412.13;4973802;28;20872;-44
2021/12/18 12:08:29;;;;;;;15.80;6.83;;;;;;;8.95;90.38;103413.34;4974522;28;20451;-45
2021/12/18 12:11:18;;;;;;;10.80;6.63;;;;;;;8.92;90.66;103408.25;4974004;28;20509;-43
2021/12/18 12:14:01;;;;;;;19.03;6.77;;;;;;;8.89;90.35;103411.16;4974351;28;20436;-42
2021/12/18 12:17:00;;;;;;;13.10;6.70;;;;;;;8.95;91.30;103396.53;4979208;28;20477;-43